sensor_id;sensor_type;location;lat;lon;timestamp;P1;durP1;ratioP1;P2;durP2;ratioP2
75504;SDS011;64085;54.974;73.410;2023-03-23T00:02:19;2.05;;;1.35;;
75504;SDS011;64085;54.974;73.410;2023-03-23T00:04:48;3.08;;;1.70;;
75504;SDS011;64085;54.974;73.410;2023-03-23T00:07:14;2.97;;;1.13;;
75504;SDS011;64085;54.974;73.410;2023-03-23T00:09:46;1.83;;;1.35;;
75504;SDS011;64085;54.974;73.410;2023-03-23T00:12:26;2.53;;;1.30;;
75504;SDS011;64085;54.974;73.410;2023-03-23T00:17:26;3.78;;;1.23;;
75504;SDS011;64085;54.974;73.410;2023-03-23T00:19:52;3.42;;;1.73;;
75504;SDS011;64085;54.974;73.410;2023-03-23T00:22:18;2.80;;;1.27;;
75504;SDS011;64085;54.974;73.410;2023-03-23T00:24:46;1.83;;;1.23;;
75504;SDS011;64085;54.974;73.410;2023-03-23T00:27:15;0.88;;;0.70;;
75504;SDS011;64085;54.974;73.410;2023-03-23T00:29:42;2.92;;;0.82;;
75504;SDS011;64085;54.974;73.410;2023-03-23T00:32:10;5.13;;;1.67;;
75504;SDS011;64085;54.974;73.410;2023-03-23T00:34:41;2.47;;;0.85;;
75504;SDS011;64085;54.974;73.410;2023-03-23T00:37:09;1.98;;;0.90;;
75504;SDS011;64085;54.974;73.410;2023-03-23T00:39:35;2.90;;;1.20;;
75504;SDS011;64085;54.974;73.410;2023-03-23T00:42:04;1.55;;;1.23;;
75504;SDS011;64085;54.974;73.410;2023-03-23T00:44:31;2.20;;;1.10;;
75504;SDS011;64085;54.974;73.410;2023-03-23T00:47:00;1.83;;;1.02;;
75504;SDS011;64085;54.974;73.410;2023-03-23T00:49:26;1.63;;;1.30;;
75504;SDS011;64085;54.974;73.410;2023-03-23T00:51:55;4.65;;;2.25;;
75504;SDS011;64085;54.974;73.410;2023-03-23T00:54:23;2.63;;;1.23;;
75504;SDS011;64085;54.974;73.410;2023-03-23T00:56:50;4.10;;;0.82;;
75504;SDS011;64085;54.974;73.410;2023-03-23T00:59:16;4.20;;;1.80;;
75504;SDS011;64085;54.974;73.410;2023-03-23T01:01:41;4.13;;;1.80;;
75504;SDS011;64085;54.974;73.410;2023-03-23T01:04:08;2.67;;;2.10;;
75504;SDS011;64085;54.974;73.410;2023-03-23T01:06:37;7.03;;;3.53;;
75504;SDS011;64085;54.974;73.410;2023-03-23T01:09:05;7.75;;;3.20;;
75504;SDS011;64085;54.974;73.410;2023-03-23T01:11:35;4.15;;;1.38;;
75504;SDS011;64085;54.974;73.410;2023-03-23T01:14:00;4.07;;;2.38;;
75504;SDS011;64085;54.974;73.410;2023-03-23T01:16:27;9.90;;;3.85;;
75504;SDS011;64085;54.974;73.410;2023-03-23T01:18:53;4.93;;;2.25;;
75504;SDS011;64085;54.974;73.410;2023-03-23T01:21:19;2.83;;;1.38;;
75504;SDS011;64085;54.974;73.410;2023-03-23T01:23:46;6.07;;;2.50;;
75504;SDS011;64085;54.974;73.410;2023-03-23T01:26:13;4.97;;;2.15;;
75504;SDS011;64085;54.974;73.410;2023-03-23T01:28:41;4.78;;;2.75;;
75504;SDS011;64085;54.974;73.410;2023-03-23T01:31:09;5.60;;;2.63;;
75504;SDS011;64085;54.974;73.410;2023-03-23T01:33:37;4.10;;;2.45;;
75504;SDS011;64085;54.974;73.410;2023-03-23T01:36:04;3.78;;;2.40;;
75504;SDS011;64085;54.974;73.410;2023-03-23T01:38:33;3.75;;;1.63;;
75504;SDS011;64085;54.974;73.410;2023-03-23T01:41:00;3.88;;;2.42;;
75504;SDS011;64085;54.974;73.410;2023-03-23T01:43:26;2.33;;;1.67;;
75504;SDS011;64085;54.974;73.410;2023-03-23T01:45:52;3.97;;;2.00;;
75504;SDS011;64085;54.974;73.410;2023-03-23T01:48:21;5.18;;;2.72;;
75504;SDS011;64085;54.974;73.410;2023-03-23T01:51:00;6.85;;;2.85;;
75504;SDS011;64085;54.974;73.410;2023-03-23T01:53:40;7.47;;;2.80;;
75504;SDS011;64085;54.974;73.410;2023-03-23T01:56:11;6.72;;;3.60;;
75504;SDS011;64085;54.974;73.410;2023-03-23T01:58:39;7.03;;;4.35;;
75504;SDS011;64085;54.974;73.410;2023-03-23T02:01:08;4.43;;;2.08;;
75504;SDS011;64085;54.974;73.410;2023-03-23T02:03:36;4.78;;;2.92;;
75504;SDS011;64085;54.974;73.410;2023-03-23T02:06:04;4.20;;;1.85;;
75504;SDS011;64085;54.974;73.410;2023-03-23T02:08:30;11.82;;;2.92;;
75504;SDS011;64085;54.974;73.410;2023-03-23T02:13:26;6.45;;;2.45;;
75504;SDS011;64085;54.974;73.410;2023-03-23T02:16:04;7.93;;;4.07;;
75504;SDS011;64085;54.974;73.410;2023-03-23T02:23:47;3.47;;;2.03;;
75504;SDS011;64085;54.974;73.410;2023-03-23T02:42:02;8.63;;;3.03;;
75504;SDS011;64085;54.974;73.410;2023-03-23T02:44:31;5.05;;;2.72;;
75504;SDS011;64085;54.974;73.410;2023-03-23T02:47:00;7.75;;;3.35;;
75504;SDS011;64085;54.974;73.410;2023-03-23T02:49:29;5.68;;;2.50;;
75504;SDS011;64085;54.974;73.410;2023-03-23T02:52:00;8.88;;;3.72;;
75504;SDS011;64085;54.974;73.410;2023-03-23T02:54:30;7.43;;;3.63;;
75504;SDS011;64085;54.974;73.410;2023-03-23T02:56:55;7.43;;;2.90;;
75504;SDS011;64085;54.974;73.410;2023-03-23T02:59:23;4.82;;;1.75;;
75504;SDS011;64085;54.974;73.410;2023-03-23T03:01:50;11.40;;;2.78;;
75504;SDS011;64085;54.974;73.410;2023-03-23T03:04:22;9.13;;;4.13;;
75504;SDS011;64085;54.974;73.410;2023-03-23T03:06:56;9.10;;;3.08;;
75504;SDS011;64085;54.974;73.410;2023-03-23T03:09:50;6.95;;;3.50;;
75504;SDS011;64085;54.974;73.410;2023-03-23T03:15:25;4.80;;;2.45;;
75504;SDS011;64085;54.974;73.410;2023-03-23T03:20:37;7.25;;;2.55;;
75504;SDS011;64085;54.974;73.410;2023-03-23T03:23:09;4.88;;;2.30;;
75504;SDS011;64085;54.974;73.410;2023-03-23T03:25:38;3.90;;;1.67;;
75504;SDS011;64085;54.974;73.410;2023-03-23T03:28:07;6.18;;;2.92;;
75504;SDS011;64085;54.974;73.410;2023-03-23T03:30:33;7.03;;;2.42;;
75504;SDS011;64085;54.974;73.410;2023-03-23T03:33:02;4.47;;;2.10;;
75504;SDS011;64085;54.974;73.410;2023-03-23T03:35:29;6.18;;;2.67;;
75504;SDS011;64085;54.974;73.410;2023-03-23T03:37:57;5.13;;;1.83;;
75504;SDS011;64085;54.974;73.410;2023-03-23T03:40:31;5.78;;;2.35;;
75504;SDS011;64085;54.974;73.410;2023-03-23T03:42:57;3.53;;;1.88;;
75504;SDS011;64085;54.974;73.410;2023-03-23T03:45:22;8.25;;;2.03;;
75504;SDS011;64085;54.974;73.410;2023-03-23T03:47:48;3.90;;;1.88;;
75504;SDS011;64085;54.974;73.410;2023-03-23T03:50:14;2.47;;;1.48;;
75504;SDS011;64085;54.974;73.410;2023-03-23T03:52:39;3.00;;;1.67;;
75504;SDS011;64085;54.974;73.410;2023-03-23T03:55:06;2.88;;;1.88;;
75504;SDS011;64085;54.974;73.410;2023-03-23T03:57:33;2.13;;;1.50;;
75504;SDS011;64085;54.974;73.410;2023-03-23T04:00:00;3.92;;;1.95;;
75504;SDS011;64085;54.974;73.410;2023-03-23T04:02:25;3.35;;;1.98;;
75504;SDS011;64085;54.974;73.410;2023-03-23T04:04:51;3.80;;;2.17;;
75504;SDS011;64085;54.974;73.410;2023-03-23T04:07:17;5.80;;;1.95;;
75504;SDS011;64085;54.974;73.410;2023-03-23T04:09:43;3.80;;;0.90;;
75504;SDS011;64085;54.974;73.410;2023-03-23T04:12:12;4.38;;;1.33;;
75504;SDS011;64085;54.974;73.410;2023-03-23T04:14:38;3.90;;;1.90;;
75504;SDS011;64085;54.974;73.410;2023-03-23T04:17:04;9.20;;;2.50;;
75504;SDS011;64085;54.974;73.410;2023-03-23T04:19:31;7.47;;;3.53;;
75504;SDS011;64085;54.974;73.410;2023-03-23T04:21:58;7.43;;;2.67;;
75504;SDS011;64085;54.974;73.410;2023-03-23T04:24:24;5.75;;;1.92;;
75504;SDS011;64085;54.974;73.410;2023-03-23T04:26:50;6.43;;;3.15;;
75504;SDS011;64085;54.974;73.410;2023-03-23T04:29:17;4.85;;;2.45;;
75504;SDS011;64085;54.974;73.410;2023-03-23T04:31:44;4.53;;;2.85;;
75504;SDS011;64085;54.974;73.410;2023-03-23T04:34:10;5.85;;;2.35;;
75504;SDS011;64085;54.974;73.410;2023-03-23T04:36:40;6.03;;;2.55;;
75504;SDS011;64085;54.974;73.410;2023-03-23T04:39:06;8.48;;;3.40;;
75504;SDS011;64085;54.974;73.410;2023-03-23T04:41:35;5.57;;;2.60;;
75504;SDS011;64085;54.974;73.410;2023-03-23T04:44:02;6.90;;;2.63;;
75504;SDS011;64085;54.974;73.410;2023-03-23T04:46:29;6.38;;;3.17;;
75504;SDS011;64085;54.974;73.410;2023-03-23T04:48:56;7.68;;;2.80;;
75504;SDS011;64085;54.974;73.410;2023-03-23T04:51:25;7.05;;;3.33;;
75504;SDS011;64085;54.974;73.410;2023-03-23T04:53:53;4.60;;;2.67;;
75504;SDS011;64085;54.974;73.410;2023-03-23T04:56:19;5.65;;;2.90;;
75504;SDS011;64085;54.974;73.410;2023-03-23T04:58:45;7.70;;;2.88;;
75504;SDS011;64085;54.974;73.410;2023-03-23T05:01:12;5.05;;;2.97;;
75504;SDS011;64085;54.974;73.410;2023-03-23T05:03:43;4.45;;;3.72;;
75504;SDS011;64085;54.974;73.410;2023-03-23T05:06:09;6.45;;;2.92;;
75504;SDS011;64085;54.974;73.410;2023-03-23T05:08:36;5.28;;;2.78;;
75504;SDS011;64085;54.974;73.410;2023-03-23T05:11:05;7.30;;;3.20;;
75504;SDS011;64085;54.974;73.410;2023-03-23T05:13:31;5.97;;;3.53;;
75504;SDS011;64085;54.974;73.410;2023-03-23T05:15:58;6.72;;;3.35;;
75504;SDS011;64085;54.974;73.410;2023-03-23T05:18:28;4.88;;;2.60;;
75504;SDS011;64085;54.974;73.410;2023-03-23T05:20:54;4.65;;;2.33;;
75504;SDS011;64085;54.974;73.410;2023-03-23T05:23:20;6.00;;;2.72;;
75504;SDS011;64085;54.974;73.410;2023-03-23T05:25:54;6.75;;;3.00;;
75504;SDS011;64085;54.974;73.410;2023-03-23T05:28:21;9.63;;;4.82;;
75504;SDS011;64085;54.974;73.410;2023-03-23T05:30:47;5.88;;;2.88;;
75504;SDS011;64085;54.974;73.410;2023-03-23T05:33:13;7.95;;;4.28;;
75504;SDS011;64085;54.974;73.410;2023-03-23T05:35:39;6.65;;;2.92;;
75504;SDS011;64085;54.974;73.410;2023-03-23T05:38:05;6.32;;;3.22;;
75504;SDS011;64085;54.974;73.410;2023-03-23T05:40:31;5.60;;;2.97;;
75504;SDS011;64085;54.974;73.410;2023-03-23T05:42:57;9.00;;;3.53;;
75504;SDS011;64085;54.974;73.410;2023-03-23T05:45:24;7.28;;;2.75;;
75504;SDS011;64085;54.974;73.410;2023-03-23T05:47:51;5.13;;;3.63;;
75504;SDS011;64085;54.974;73.410;2023-03-23T05:50:17;5.80;;;2.55;;
75504;SDS011;64085;54.974;73.410;2023-03-23T05:52:43;4.57;;;2.50;;
75504;SDS011;64085;54.974;73.410;2023-03-23T05:55:10;5.88;;;2.83;;
75504;SDS011;64085;54.974;73.410;2023-03-23T05:57:35;6.18;;;2.97;;
75504;SDS011;64085;54.974;73.410;2023-03-23T06:00:01;6.22;;;3.05;;
75504;SDS011;64085;54.974;73.410;2023-03-23T06:02:40;5.35;;;2.97;;
75504;SDS011;64085;54.974;73.410;2023-03-23T06:05:09;7.25;;;3.45;;
75504;SDS011;64085;54.974;73.410;2023-03-23T06:07:37;6.00;;;2.88;;
75504;SDS011;64085;54.974;73.410;2023-03-23T06:10:03;5.47;;;3.33;;
75504;SDS011;64085;54.974;73.410;2023-03-23T06:12:34;6.05;;;3.00;;
75504;SDS011;64085;54.974;73.410;2023-03-23T06:15:00;6.60;;;3.90;;
75504;SDS011;64085;54.974;73.410;2023-03-23T06:17:26;6.15;;;3.20;;
75504;SDS011;64085;54.974;73.410;2023-03-23T06:19:52;8.82;;;3.40;;
75504;SDS011;64085;54.974;73.410;2023-03-23T06:22:18;4.80;;;2.60;;
75504;SDS011;64085;54.974;73.410;2023-03-23T06:24:44;5.95;;;2.63;;
75504;SDS011;64085;54.974;73.410;2023-03-23T06:27:10;6.70;;;3.15;;
75504;SDS011;64085;54.974;73.410;2023-03-23T06:29:35;5.30;;;2.70;;
75504;SDS011;64085;54.974;73.410;2023-03-23T06:32:02;5.78;;;3.13;;
75504;SDS011;64085;54.974;73.410;2023-03-23T06:34:30;4.10;;;2.65;;
75504;SDS011;64085;54.974;73.410;2023-03-23T06:36:57;8.02;;;2.92;;
75504;SDS011;64085;54.974;73.410;2023-03-23T06:39:23;7.85;;;3.47;;
75504;SDS011;64085;54.974;73.410;2023-03-23T06:41:49;5.82;;;3.15;;
75504;SDS011;64085;54.974;73.410;2023-03-23T06:44:15;5.20;;;2.80;;
75504;SDS011;64085;54.974;73.410;2023-03-23T06:46:41;8.13;;;3.55;;
75504;SDS011;64085;54.974;73.410;2023-03-23T06:49:07;7.40;;;3.83;;
75504;SDS011;64085;54.974;73.410;2023-03-23T06:51:33;6.15;;;3.47;;
75504;SDS011;64085;54.974;73.410;2023-03-23T06:54:00;6.68;;;3.45;;
75504;SDS011;64085;54.974;73.410;2023-03-23T06:56:26;5.93;;;3.10;;
75504;SDS011;64085;54.974;73.410;2023-03-23T06:58:51;6.07;;;3.28;;
75504;SDS011;64085;54.974;73.410;2023-03-23T07:01:17;4.93;;;3.08;;
75504;SDS011;64085;54.974;73.410;2023-03-23T07:03:43;5.80;;;3.83;;
75504;SDS011;64085;54.974;73.410;2023-03-23T07:06:09;5.93;;;3.45;;
75504;SDS011;64085;54.974;73.410;2023-03-23T07:08:35;6.03;;;3.28;;
75504;SDS011;64085;54.974;73.410;2023-03-23T07:11:01;7.00;;;4.45;;
75504;SDS011;64085;54.974;73.410;2023-03-23T07:13:28;7.70;;;4.05;;
75504;SDS011;64085;54.974;73.410;2023-03-23T07:15:53;5.35;;;3.38;;
75504;SDS011;64085;54.974;73.410;2023-03-23T07:18:21;8.02;;;4.70;;
75504;SDS011;64085;54.974;73.410;2023-03-23T07:20:47;6.72;;;3.38;;
75504;SDS011;64085;54.974;73.410;2023-03-23T07:23:14;7.28;;;3.35;;
75504;SDS011;64085;54.974;73.410;2023-03-23T07:25:40;5.93;;;3.42;;
75504;SDS011;64085;54.974;73.410;2023-03-23T07:28:06;7.35;;;3.63;;
75504;SDS011;64085;54.974;73.410;2023-03-23T07:30:32;6.15;;;3.22;;
75504;SDS011;64085;54.974;73.410;2023-03-23T07:32:57;6.35;;;3.80;;
75504;SDS011;64085;54.974;73.410;2023-03-23T07:35:24;6.90;;;3.17;;
75504;SDS011;64085;54.974;73.410;2023-03-23T07:37:50;5.20;;;3.00;;
75504;SDS011;64085;54.974;73.410;2023-03-23T07:40:17;4.80;;;3.30;;
75504;SDS011;64085;54.974;73.410;2023-03-23T07:42:44;4.70;;;3.10;;
75504;SDS011;64085;54.974;73.410;2023-03-23T07:45:14;6.07;;;3.50;;
75504;SDS011;64085;54.974;73.410;2023-03-23T07:47:40;4.32;;;3.03;;
75504;SDS011;64085;54.974;73.410;2023-03-23T07:50:07;7.15;;;3.28;;
75504;SDS011;64085;54.974;73.410;2023-03-23T07:52:34;4.97;;;3.50;;
75504;SDS011;64085;54.974;73.410;2023-03-23T07:55:01;8.13;;;3.85;;
75504;SDS011;64085;54.974;73.410;2023-03-23T07:57:29;7.95;;;3.60;;
75504;SDS011;64085;54.974;73.410;2023-03-23T07:59:56;6.10;;;3.22;;
75504;SDS011;64085;54.974;73.410;2023-03-23T08:02:23;5.00;;;3.83;;
75504;SDS011;64085;54.974;73.410;2023-03-23T08:04:49;7.53;;;3.35;;
75504;SDS011;64085;54.974;73.410;2023-03-23T08:07:16;4.75;;;3.55;;
75504;SDS011;64085;54.974;73.410;2023-03-23T08:09:44;4.53;;;3.30;;
75504;SDS011;64085;54.974;73.410;2023-03-23T08:12:10;7.20;;;3.50;;
75504;SDS011;64085;54.974;73.410;2023-03-23T08:14:36;6.80;;;3.38;;
75504;SDS011;64085;54.974;73.410;2023-03-23T08:17:02;4.13;;;3.00;;
75504;SDS011;64085;54.974;73.410;2023-03-23T08:19:27;4.57;;;2.95;;
75504;SDS011;64085;54.974;73.410;2023-03-23T08:21:53;5.93;;;3.20;;
75504;SDS011;64085;54.974;73.410;2023-03-23T08:24:19;3.92;;;1.80;;
75504;SDS011;64085;54.974;73.410;2023-03-23T08:26:45;4.35;;;2.40;;
75504;SDS011;64085;54.974;73.410;2023-03-23T08:29:10;2.47;;;1.95;;
75504;SDS011;64085;54.974;73.410;2023-03-23T08:31:37;3.95;;;1.55;;
75504;SDS011;64085;54.974;73.410;2023-03-23T08:34:04;1.77;;;1.08;;
75504;SDS011;64085;54.974;73.410;2023-03-23T08:36:34;3.65;;;1.63;;
75504;SDS011;64085;54.974;73.410;2023-03-23T08:39:00;2.40;;;1.50;;
75504;SDS011;64085;54.974;73.410;2023-03-23T08:41:26;2.20;;;1.67;;
75504;SDS011;64085;54.974;73.410;2023-03-23T08:43:51;2.00;;;1.80;;
75504;SDS011;64085;54.974;73.410;2023-03-23T08:46:18;3.75;;;2.25;;
75504;SDS011;64085;54.974;73.410;2023-03-23T08:48:44;3.33;;;1.90;;
75504;SDS011;64085;54.974;73.410;2023-03-23T08:51:11;2.78;;;1.98;;
75504;SDS011;64085;54.974;73.410;2023-03-23T08:53:37;2.70;;;1.58;;
75504;SDS011;64085;54.974;73.410;2023-03-23T08:56:07;1.25;;;1.15;;
75504;SDS011;64085;54.974;73.410;2023-03-23T08:58:38;3.33;;;1.13;;
75504;SDS011;64085;54.974;73.410;2023-03-23T09:01:05;2.17;;;1.45;;
75504;SDS011;64085;54.974;73.410;2023-03-23T09:03:33;1.60;;;1.10;;
75504;SDS011;64085;54.974;73.410;2023-03-23T09:06:04;1.65;;;1.33;;
75504;SDS011;64085;54.974;73.410;2023-03-23T09:08:31;1.08;;;0.70;;
75504;SDS011;64085;54.974;73.410;2023-03-23T09:11:08;2.22;;;1.20;;
75504;SDS011;64085;54.974;73.410;2023-03-23T09:13:35;1.55;;;1.05;;
75504;SDS011;64085;54.974;73.410;2023-03-23T09:16:02;2.22;;;1.40;;
75504;SDS011;64085;54.974;73.410;2023-03-23T09:18:29;1.75;;;1.10;;
75504;SDS011;64085;54.974;73.410;2023-03-23T09:20:57;1.77;;;0.85;;
75504;SDS011;64085;54.974;73.410;2023-03-23T09:23:24;1.65;;;1.30;;
75504;SDS011;64085;54.974;73.410;2023-03-23T09:25:50;2.88;;;0.85;;
75504;SDS011;64085;54.974;73.410;2023-03-23T09:28:17;1.35;;;1.00;;
75504;SDS011;64085;54.974;73.410;2023-03-23T09:30:42;1.60;;;1.00;;
75504;SDS011;64085;54.974;73.410;2023-03-23T09:33:09;2.08;;;1.23;;
75504;SDS011;64085;54.974;73.410;2023-03-23T09:35:35;2.83;;;1.30;;
75504;SDS011;64085;54.974;73.410;2023-03-23T09:38:03;2.03;;;0.93;;
75504;SDS011;64085;54.974;73.410;2023-03-23T09:40:37;1.10;;;0.75;;
75504;SDS011;64085;54.974;73.410;2023-03-23T09:53:44;1.00;;;0.80;;
75504;SDS011;64085;54.974;73.410;2023-03-23T09:56:14;1.00;;;0.60;;
75504;SDS011;64085;54.974;73.410;2023-03-23T09:59:27;0.43;;;0.40;;
75504;SDS011;64085;54.974;73.410;2023-03-23T10:01:40;0.73;;;0.40;;
75504;SDS011;64085;54.974;73.410;2023-03-23T10:06:48;0.57;;;0.47;;
75504;SDS011;64085;54.974;73.410;2023-03-23T10:09:15;0.70;;;0.30;;
75504;SDS011;64085;54.974;73.410;2023-03-23T10:11:54;0.45;;;0.43;;
75504;SDS011;64085;54.974;73.410;2023-03-23T10:25:52;0.47;;;0.47;;
75504;SDS011;64085;54.974;73.410;2023-03-23T10:28:36;1.50;;;0.40;;
75504;SDS011;64085;54.974;73.410;2023-03-23T10:31:02;0.70;;;0.25;;
75504;SDS011;64085;54.974;73.410;2023-03-23T10:36:23;0.95;;;0.40;;
75504;SDS011;64085;54.974;73.410;2023-03-23T10:41:20;0.93;;;0.70;;
75504;SDS011;64085;54.974;73.410;2023-03-23T10:43:47;1.15;;;0.88;;
75504;SDS011;64085;54.974;73.410;2023-03-23T10:49:02;0.85;;;0.30;;
75504;SDS011;64085;54.974;73.410;2023-03-23T10:51:37;0.73;;;0.40;;
75504;SDS011;64085;54.974;73.410;2023-03-23T10:54:07;0.70;;;0.50;;
75504;SDS011;64085;54.974;73.410;2023-03-23T10:56:40;0.65;;;0.65;;
75504;SDS011;64085;54.974;73.410;2023-03-23T10:59:18;2.00;;;0.60;;
75504;SDS011;64085;54.974;73.410;2023-03-23T11:01:47;0.93;;;0.60;;
75504;SDS011;64085;54.974;73.410;2023-03-23T11:04:16;0.90;;;0.52;;
75504;SDS011;64085;54.974;73.410;2023-03-23T11:06:54;1.83;;;0.75;;
75504;SDS011;64085;54.974;73.410;2023-03-23T11:09:37;1.30;;;0.40;;
75504;SDS011;64085;54.974;73.410;2023-03-23T11:12:16;1.08;;;0.35;;
75504;SDS011;64085;54.974;73.410;2023-03-23T11:14:43;1.35;;;0.60;;
75504;SDS011;64085;54.974;73.410;2023-03-23T11:17:23;2.28;;;1.10;;
75504;SDS011;64085;54.974;73.410;2023-03-23T11:19:52;1.77;;;1.20;;
75504;SDS011;64085;54.974;73.410;2023-03-23T11:24:59;1.50;;;0.90;;
75504;SDS011;64085;54.974;73.410;2023-03-23T11:27:26;2.78;;;0.90;;
75504;SDS011;64085;54.974;73.410;2023-03-23T11:29:54;2.47;;;1.20;;
75504;SDS011;64085;54.974;73.410;2023-03-23T11:32:26;1.40;;;0.38;;
75504;SDS011;64085;54.974;73.410;2023-03-23T11:34:58;2.58;;;1.02;;
75504;SDS011;64085;54.974;73.410;2023-03-23T11:37:33;2.42;;;0.85;;
75504;SDS011;64085;54.974;73.410;2023-03-23T11:42:42;1.73;;;0.82;;
75504;SDS011;64085;54.974;73.410;2023-03-23T11:48:19;1.90;;;0.95;;
75504;SDS011;64085;54.974;73.410;2023-03-23T11:56:35;2.22;;;1.50;;
75504;SDS011;64085;54.974;73.410;2023-03-23T11:59:05;1.92;;;1.33;;
75504;SDS011;64085;54.974;73.410;2023-03-23T12:04:24;1.73;;;1.10;;
75504;SDS011;64085;54.974;73.410;2023-03-23T12:07:02;0.57;;;0.50;;
75504;SDS011;64085;54.974;73.410;2023-03-23T12:25:51;4.22;;;1.15;;
75504;SDS011;64085;54.974;73.410;2023-03-23T12:36:07;2.88;;;1.60;;
75504;SDS011;64085;54.974;73.410;2023-03-23T12:41:52;2.83;;;1.30;;
75504;SDS011;64085;54.974;73.410;2023-03-23T12:44:48;3.03;;;1.50;;
75504;SDS011;64085;54.974;73.410;2023-03-23T12:47:28;1.67;;;1.40;;
75504;SDS011;64085;54.974;73.410;2023-03-23T12:52:38;2.63;;;1.77;;
75504;SDS011;64085;54.974;73.410;2023-03-23T12:55:16;2.95;;;1.77;;
75504;SDS011;64085;54.974;73.410;2023-03-23T12:57:56;4.70;;;2.28;;
75504;SDS011;64085;54.974;73.410;2023-03-23T13:00:54;3.80;;;2.28;;
75504;SDS011;64085;54.974;73.410;2023-03-23T13:06:06;4.82;;;2.50;;
75504;SDS011;64085;54.974;73.410;2023-03-23T13:08:53;4.00;;;2.00;;
75504;SDS011;64085;54.974;73.410;2023-03-23T13:11:34;3.50;;;1.65;;
75504;SDS011;64085;54.974;73.410;2023-03-23T13:16:58;2.92;;;1.85;;
75504;SDS011;64085;54.974;73.410;2023-03-23T13:22:42;3.97;;;2.25;;
75504;SDS011;64085;54.974;73.410;2023-03-23T13:28:22;10.30;;;3.90;;
75504;SDS011;64085;54.974;73.410;2023-03-23T13:30:54;5.03;;;2.85;;
75504;SDS011;64085;54.974;73.410;2023-03-23T13:33:25;5.05;;;3.08;;
75504;SDS011;64085;54.974;73.410;2023-03-23T13:35:54;6.45;;;3.05;;
75504;SDS011;64085;54.974;73.410;2023-03-23T13:38:26;8.15;;;3.72;;
75504;SDS011;64085;54.974;73.410;2023-03-23T13:40:55;4.20;;;2.25;;
75504;SDS011;64085;54.974;73.410;2023-03-23T13:43:27;5.10;;;2.58;;
75504;SDS011;64085;54.974;73.410;2023-03-23T13:45:54;3.20;;;2.13;;
75504;SDS011;64085;54.974;73.410;2023-03-23T13:48:39;3.83;;;2.20;;
75504;SDS011;64085;54.974;73.410;2023-03-23T13:51:23;3.83;;;2.45;;
75504;SDS011;64085;54.974;73.410;2023-03-23T13:54:05;7.53;;;3.58;;
75504;SDS011;64085;54.974;73.410;2023-03-23T13:59:14;7.10;;;3.50;;
75504;SDS011;64085;54.974;73.410;2023-03-23T14:01:42;5.43;;;3.10;;
75504;SDS011;64085;54.974;73.410;2023-03-23T14:04:15;6.10;;;4.13;;
75504;SDS011;64085;54.974;73.410;2023-03-23T14:06:44;7.20;;;4.00;;
75504;SDS011;64085;54.974;73.410;2023-03-23T14:09:13;7.47;;;3.58;;
75504;SDS011;64085;54.974;73.410;2023-03-23T14:12:01;5.50;;;3.80;;
75504;SDS011;64085;54.974;73.410;2023-03-23T14:14:38;6.53;;;3.53;;
75504;SDS011;64085;54.974;73.410;2023-03-23T14:19:47;4.00;;;2.60;;
75504;SDS011;64085;54.974;73.410;2023-03-23T14:22:19;4.60;;;2.92;;
75504;SDS011;64085;54.974;73.410;2023-03-23T14:24:47;5.05;;;3.03;;
75504;SDS011;64085;54.974;73.410;2023-03-23T14:27:14;3.65;;;2.60;;
75504;SDS011;64085;54.974;73.410;2023-03-23T14:29:42;5.80;;;3.05;;
75504;SDS011;64085;54.974;73.410;2023-03-23T14:32:15;5.00;;;3.03;;
75504;SDS011;64085;54.974;73.410;2023-03-23T14:34:46;4.28;;;2.50;;
75504;SDS011;64085;54.974;73.410;2023-03-23T14:37:13;4.55;;;3.03;;
75504;SDS011;64085;54.974;73.410;2023-03-23T14:39:43;4.50;;;2.60;;
75504;SDS011;64085;54.974;73.410;2023-03-23T14:42:16;5.20;;;2.38;;
75504;SDS011;64085;54.974;73.410;2023-03-23T14:44:45;5.15;;;2.63;;
75504;SDS011;64085;54.974;73.410;2023-03-23T14:47:18;5.40;;;2.40;;
75504;SDS011;64085;54.974;73.410;2023-03-23T14:49:53;4.55;;;2.15;;
75504;SDS011;64085;54.974;73.410;2023-03-23T14:52:24;4.88;;;2.70;;
75504;SDS011;64085;54.974;73.410;2023-03-23T14:54:52;6.00;;;2.85;;
75504;SDS011;64085;54.974;73.410;2023-03-23T14:59:49;6.35;;;2.53;;
75504;SDS011;64085;54.974;73.410;2023-03-23T15:04:49;6.10;;;2.97;;
75504;SDS011;64085;54.974;73.410;2023-03-23T15:07:20;4.00;;;2.08;;
75504;SDS011;64085;54.974;73.410;2023-03-23T15:09:51;6.88;;;2.50;;
75504;SDS011;64085;54.974;73.410;2023-03-23T15:12:23;8.38;;;3.15;;
75504;SDS011;64085;54.974;73.410;2023-03-23T15:14:57;6.07;;;2.95;;
75504;SDS011;64085;54.974;73.410;2023-03-23T15:17:28;6.05;;;3.03;;
75504;SDS011;64085;54.974;73.410;2023-03-23T15:19:56;4.53;;;2.63;;
75504;SDS011;64085;54.974;73.410;2023-03-23T15:22:27;6.32;;;2.25;;
75504;SDS011;64085;54.974;73.410;2023-03-23T15:25:10;4.90;;;2.45;;
75504;SDS011;64085;54.974;73.410;2023-03-23T15:27:51;4.60;;;2.72;;
75504;SDS011;64085;54.974;73.410;2023-03-23T15:32:47;2.72;;;1.67;;
75504;SDS011;64085;54.974;73.410;2023-03-23T15:35:17;3.58;;;2.03;;
75504;SDS011;64085;54.974;73.410;2023-03-23T15:37:49;3.85;;;2.15;;
75504;SDS011;64085;54.974;73.410;2023-03-23T15:40:18;2.65;;;1.42;;
75504;SDS011;64085;54.974;73.410;2023-03-23T15:42:49;2.85;;;1.73;;
75504;SDS011;64085;54.974;73.410;2023-03-23T15:45:31;3.47;;;2.05;;
75504;SDS011;64085;54.974;73.410;2023-03-23T15:47:58;4.05;;;2.08;;
75504;SDS011;64085;54.974;73.410;2023-03-23T15:50:35;2.45;;;1.95;;
75504;SDS011;64085;54.974;73.410;2023-03-23T15:53:10;4.78;;;2.30;;
75504;SDS011;64085;54.974;73.410;2023-03-23T15:55:58;5.95;;;2.65;;
75504;SDS011;64085;54.974;73.410;2023-03-23T15:58:26;2.83;;;1.83;;
75504;SDS011;64085;54.974;73.410;2023-03-23T16:00:52;4.43;;;2.45;;
75504;SDS011;64085;54.974;73.410;2023-03-23T16:03:22;5.25;;;2.55;;
75504;SDS011;64085;54.974;73.410;2023-03-23T16:05:52;3.40;;;2.20;;
75504;SDS011;64085;54.974;73.410;2023-03-23T16:08:19;4.68;;;2.15;;
75504;SDS011;64085;54.974;73.410;2023-03-23T16:10:45;5.53;;;1.92;;
75504;SDS011;64085;54.974;73.410;2023-03-23T16:13:11;5.15;;;2.38;;
75504;SDS011;64085;54.974;73.410;2023-03-23T16:15:36;4.53;;;1.80;;
75504;SDS011;64085;54.974;73.410;2023-03-23T16:18:02;4.40;;;2.38;;
75504;SDS011;64085;54.974;73.410;2023-03-23T16:20:29;5.82;;;2.30;;
75504;SDS011;64085;54.974;73.410;2023-03-23T16:22:57;4.35;;;2.17;;
75504;SDS011;64085;54.974;73.410;2023-03-23T16:25:23;4.47;;;2.08;;
75504;SDS011;64085;54.974;73.410;2023-03-23T16:27:49;3.65;;;2.15;;
75504;SDS011;64085;54.974;73.410;2023-03-23T16:30:25;4.35;;;2.22;;
75504;SDS011;64085;54.974;73.410;2023-03-23T16:32:52;2.25;;;1.50;;
75504;SDS011;64085;54.974;73.410;2023-03-23T16:35:19;4.05;;;2.30;;
75504;SDS011;64085;54.974;73.410;2023-03-23T16:37:46;3.33;;;2.00;;
75504;SDS011;64085;54.974;73.410;2023-03-23T16:40:13;4.82;;;2.47;;
75504;SDS011;64085;54.974;73.410;2023-03-23T16:42:40;6.55;;;2.70;;
75504;SDS011;64085;54.974;73.410;2023-03-23T16:45:06;3.65;;;2.30;;
75504;SDS011;64085;54.974;73.410;2023-03-23T16:47:33;6.50;;;2.70;;
75504;SDS011;64085;54.974;73.410;2023-03-23T16:49:59;6.30;;;2.67;;
75504;SDS011;64085;54.974;73.410;2023-03-23T16:52:25;4.72;;;3.17;;
75504;SDS011;64085;54.974;73.410;2023-03-23T16:54:51;10.80;;;3.38;;
75504;SDS011;64085;54.974;73.410;2023-03-23T16:57:17;3.88;;;2.03;;
75504;SDS011;64085;54.974;73.410;2023-03-23T16:59:42;5.82;;;3.25;;
75504;SDS011;64085;54.974;73.410;2023-03-23T17:02:09;8.02;;;3.45;;